Time;durP1;ratioP1;P1;durP2;ratioP2;P2;SDS_P1;SDS_P2;PMS_P1;PMS_P2;Temp;Humidity;BMP_temperature;BMP_pressure;BME280_temperature;BME280_humidity;BME280_pressure;Samples;Min_cycle;Max_cycle;Signal;HPM_P1;HPM_P2
2021/04/01 00:02:24;;;;;;;16.80;13.43;;;15.80;55.90;;;;;;5077089;28;20479;-75
2021/04/01 00:04:50;;;;;;;16.13;12.73;;;15.80;55.90;;;;;;5077040;28;20468;-75
2021/04/01 00:07:16;;;;;;;15.50;12.23;;;15.80;56.00;;;;;;5076656;28;20484;-75
2021/04/01 00:09:42;;;;;;;17.70;12.80;;;15.80;56.00;;;;;;5076996;28;20444;-75
2021/04/01 00:12:10;;;;;;;15.93;13.37;;;15.70;56.00;;;;;;5076933;28;20505;-75
2021/04/01 00:14:37;;;;;;;16.20;13.37;;;15.70;56.10;;;;;;5076827;28;20460;-75
2021/04/01 00:17:06;;;;;;;15.83;12.20;;;15.70;56.30;;;;;;5076862;28;20421;-75
2021/04/01 00:19:32;;;;;;;15.97;11.67;;;15.70;56.40;;;;;;5076779;28;20509;-75
2021/04/01 00:21:59;;;;;;;12.93;10.30;;;15.70;56.40;;;;;;5076704;28;20448;-75
2021/04/01 00:24:25;;;;;;;17.07;13.60;;;15.70;56.50;;;;;;5076639;28;20464;-75
2021/04/01 00:26:51;;;;;;;20.47;14.10;;;15.60;56.70;;;;;;5076568;28;20526;-75
2021/04/01 00:29:17;;;;;;;18.93;15.20;;;15.60;56.60;;;;;;5076559;28;20436;-75
2021/04/01 00:31:44;;;;;;;17.73;13.50;;;15.60;56.60;;;;;;5076550;28;20444;-75
2021/04/01 00:34:10;;;;;;;16.87;14.53;;;15.50;56.40;;;;;;5076449;28;20475;-74
2021/04/01 00:36:37;;;;;;;23.50;16.03;;;15.50;56.90;;;;;;5076416;28;20436;-74
2021/04/01 00:39:03;;;;;;;21.10;15.10;;;15.40;57.20;;;;;;5076436;28;20510;-74
2021/04/01 00:41:30;;;;;;;23.03;16.03;;;15.40;57.50;;;;;;5076371;28;20447;-74
2021/04/01 00:43:56;;;;;;;22.87;16.30;;;15.30;57.30;;;;;;5076287;28;20485;-74
2021/04/01 00:46:22;;;;;;;24.97;16.93;;;15.30;57.40;;;;;;5075926;28;20973;-74
2021/04/01 00:48:49;;;;;;;20.80;15.50;;;15.30;57.70;;;;;;5076239;28;20452;-74
2021/04/01 00:51:16;;;;;;;21.60;16.63;;;15.30;57.80;;;;;;5075895;28;20444;-74
2021/04/01 00:53:42;;;;;;;29.43;17.80;;;15.30;57.90;;;;;;5076108;28;20440;-74
2021/04/01 00:56:08;;;;;;;21.63;15.83;;;15.20;57.90;;;;;;5074787;28;20449;-74
2021/04/01 00:58:35;;;;;;;27.97;17.07;;;15.20;58.00;;;;;;5076063;28;20447;-74
2021/04/01 01:01:15;;;;;;;23.87;17.90;;;15.20;58.00;;;;;;5075862;28;20926;-74
2021/04/01 01:03:42;;;;;;;25.40;18.10;;;15.20;58.20;;;;;;5075979;28;20469;-74
2021/04/01 01:06:09;;;;;;;26.17;19.17;;;15.20;58.30;;;;;;5075900;28;20436;-74
2021/04/01 01:08:35;;;;;;;24.10;18.27;;;15.20;58.20;;;;;;5075550;28;20471;-74
2021/04/01 01:11:02;;;;;;;28.03;18.10;;;15.20;58.20;;;;;;5075902;28;20448;-74
2021/04/01 01:13:28;;;;;;;32.00;20.23;;;15.10;58.40;;;;;;5075812;28;20749;-74
2021/04/01 01:15:54;;;;;;;22.67;18.87;;;15.10;58.70;;;;;;5075661;28;20461;-74
2021/04/01 01:18:20;;;;;;;26.63;18.77;;;15.10;58.80;;;;;;5075439;28;20939;-75
2021/04/01 01:20:46;;;;;;;26.60;19.13;;;15.00;58.70;;;;;;5075632;28;20497;-74
2021/04/01 01:23:14;;;;;;;29.27;19.30;;;15.00;58.90;;;;;;5075649;28;20452;-74
2021/04/01 01:25:41;;;;;;;23.93;18.87;;;15.00;58.90;;;;;;5075818;28;20476;-74
2021/04/01 01:28:09;;;;;;;29.90;20.13;;;15.00;58.90;;;;;;5075470;28;20476;-74
2021/04/01 01:30:35;;;;;;;25.27;19.00;;;15.00;59.00;;;;;;5075225;28;20960;-74
2021/04/01 01:33:05;;;;;;;23.93;17.87;;;14.90;59.30;;;;;;5075444;28;20449;-74
2021/04/01 01:35:33;;;;;;;28.43;21.17;;;14.90;59.30;;;;;;5075312;28;20473;-74
2021/04/01 01:38:02;;;;;;;31.43;22.40;;;14.90;59.60;;;;;;5075363;28;20449;-74
2021/04/01 01:43:51;;;;;;;28.80;20.90;;;14.80;59.80;;;;;;5075460;28;20376;-74
2021/04/01 01:46:17;;;;;;;33.33;22.83;;;14.80;59.90;;;;;;5075133;28;20448;-74
2021/04/01 01:48:44;;;;;;;33.40;21.47;;;14.80;60.00;;;;;;5075174;28;20429;-74
2021/04/01 01:51:10;;;;;;;27.30;21.40;;;14.80;60.10;;;;;;5075079;28;20444;-74
2021/04/01 01:53:36;;;;;;;32.00;21.33;;;14.80;60.30;;;;;;5074965;28;20455;-74
2021/04/01 01:56:03;;;;;;;30.67;21.60;;;14.80;60.90;;;;;;5075075;28;20800;-74
2021/04/01 01:58:29;;;;;;;32.63;22.40;;;14.80;61.10;;;;;;5074917;28;20475;-74
2021/04/01 02:00:57;;;;;;;31.83;22.50;;;14.80;60.90;;;;;;5074868;28;20449;-74
2021/04/01 02:03:25;;;;;;;32.60;22.67;;;14.80;60.90;;;;;;5074834;28;20445;-74
2021/04/01 02:05:51;;;;;;;37.73;24.33;;;14.80;60.90;;;;;;5075194;28;20472;-74
2021/04/01 02:08:18;;;;;;;30.97;22.37;;;14.80;60.90;;;;;;5073976;28;20529;-74
2021/04/01 02:10:46;;;;;;;33.20;21.90;;;14.80;60.80;;;;;;5074622;28;20456;-74
2021/04/01 02:13:14;;;;;;;31.47;21.70;;;14.80;60.60;;;;;;5074669;28;20429;-74
2021/04/01 02:15:42;;;;;;;28.93;21.77;;;14.80;60.80;;;;;;5074498;28;20487;-74
2021/04/01 02:18:11;;;;;;;32.43;22.47;;;14.70;60.60;;;;;;5075428;28;20819;-74
2021/04/01 02:20:41;;;;;;;33.13;22.20;;;14.70;60.80;;;;;;5074238;28;20448;-74
2021/04/01 02:23:09;;;;;;;26.33;20.80;;;14.70;60.50;;;;;;5074423;28;20448;-74
2021/04/01 02:25:35;;;;;;;30.60;20.90;;;14.60;60.30;;;;;;5074030;28;20978;-74
2021/04/01 02:28:01;;;;;;;29.00;21.00;;;14.60;60.70;;;;;;5074229;28;20826;-74
2021/04/01 02:30:28;;;;;;;26.63;20.67;;;14.60;60.80;;;;;;5074357;28;20448;-74
2021/04/01 02:32:54;;;;;;;28.10;20.37;;;14.60;61.30;;;;;;5074236;28;20440;-74
2021/04/01 02:35:21;;;;;;;26.80;19.07;;;14.50;61.60;;;;;;5074153;28;20574;-74
2021/04/01 02:37:47;;;;;;;31.13;19.57;;;14.50;61.70;;;;;;5074140;28;20440;-74
2021/04/01 02:40:14;;;;;;;31.17;21.27;;;14.50;62.00;;;;;;5074109;28;20449;-74
2021/04/01 02:42:41;;;;;;;29.30;20.27;;;14.40;62.10;;;;;;5074045;28;20441;-74
2021/04/01 02:45:09;;;;;;;29.80;20.97;;;14.40;62.50;;;;;;5073952;28;20473;-74
2021/04/01 02:47:35;;;;;;;33.33;22.67;;;14.40;62.60;;;;;;5073880;28;20483;-74
2021/04/01 02:50:01;;;;;;;30.70;21.30;;;14.40;62.60;;;;;;5073938;28;20449;-74
2021/04/01 02:52:28;;;;;;;30.27;21.10;;;14.30;62.40;;;;;;5073879;28;20455;-74
2021/04/01 02:54:54;;;;;;;28.13;19.43;;;14.30;62.80;;;;;;5073792;28;20465;-74
2021/04/01 02:57:21;;;;;;;32.87;21.80;;;14.30;63.10;;;;;;5073835;28;20514;-74
2021/04/01 02:59:47;;;;;;;35.90;23.80;;;14.30;63.10;;;;;;5073791;28;20444;-74
2021/04/01 03:02:14;;;;;;;36.43;22.90;;;14.30;63.20;;;;;;5073761;28;20452;-74
2021/04/01 03:04:41;;;;;;;31.90;20.73;;;14.30;63.60;;;;;;5073706;28;20824;-74
2021/04/01 03:07:07;;;;;;;29.93;22.33;;;14.30;63.90;;;;;;5073373;28;20488;-74
2021/04/01 03:09:34;;;;;;;32.63;22.50;;;14.30;63.80;;;;;;5073720;28;20425;-74
2021/04/01 03:12:01;;;;;;;34.90;22.30;;;14.30;63.80;;;;;;5073615;28;20445;-74
2021/04/01 03:14:27;;;;;;;30.13;21.30;;;14.30;63.70;;;;;;5073531;28;20464;-74
2021/04/01 03:16:53;;;;;;;27.83;19.60;;;14.30;63.70;;;;;;5073261;28;20931;-74
2021/04/01 03:19:19;;;;;;;28.10;21.17;;;14.30;63.80;;;;;;5072499;28;20471;-74
2021/04/01 03:21:46;;;;;;;33.63;21.07;;;14.30;63.80;;;;;;5073146;28;20449;-74
2021/04/01 03:24:13;;;;;;;31.90;20.90;;;14.30;63.80;;;;;;5073184;28;21034;-74
2021/04/01 03:26:40;;;;;;;33.73;21.60;;;14.20;64.00;;;;;;5073423;28;20456;-73
2021/04/01 03:29:07;;;;;;;34.47;23.00;;;14.20;64.30;;;;;;5073474;28;20445;-73
2021/04/01 03:31:33;;;;;;;36.20;22.17;;;14.20;64.80;;;;;;5073205;28;20483;-74
2021/04/01 03:34:00;;;;;;;30.10;20.43;;;14.20;64.80;;;;;;5073367;28;20464;-74
2021/04/01 03:36:26;;;;;;;29.40;20.40;;;14.20;64.60;;;;;;5073456;28;20523;-72
2021/04/01 03:38:53;;;;;;;36.03;21.60;;;14.20;64.50;;;;;;5073352;28;20436;-74
2021/04/01 03:41:19;;;;;;;29.03;20.77;;;14.20;64.60;;;;;;5073357;28;20448;-74
2021/04/01 03:43:47;;;;;;;31.80;21.57;;;14.20;64.90;;;;;;5073329;28;20452;-73
2021/04/01 03:46:13;;;;;;;32.93;22.03;;;14.20;64.90;;;;;;5073309;28;20444;-73
2021/04/01 03:48:40;;;;;;;32.17;21.67;;;14.20;65.30;;;;;;5073202;28;20850;-73
2021/04/01 03:51:06;;;;;;;35.53;22.03;;;14.20;65.40;;;;;;5073244;28;20440;-73
2021/04/01 03:53:33;;;;;;;32.70;23.60;;;14.20;65.40;;;;;;5073273;28;20460;-73
2021/04/01 03:55:59;;;;;;;37.50;23.00;;;14.20;65.40;;;;;;5073199;28;20498;-74
2021/04/01 04:04:12;;;;;;;30.40;22.20;;;14.20;65.50;;;;;;5073230;28;20444;-74
2021/04/01 04:07:09;;;;;;;31.47;22.07;;;14.10;65.40;;;;;;5072872;28;20432;-73
2021/04/01 04:09:46;;;;;;;34.97;21.47;;;14.10;65.70;;;;;;5073074;28;20479;-73
2021/04/01 04:12:20;;;;;;;27.00;18.53;;;14.00;65.80;;;;;;5072746;28;20866;-75
2021/04/01 04:14:48;;;;;;;30.90;18.77;;;14.00;65.80;;;;;;5072927;28;20456;-75
2021/04/01 04:17:15;;;;;;;35.00;21.97;;;14.00;66.00;;;;;;5072662;28;20505;-75
2021/04/01 04:19:41;;;;;;;28.10;20.93;;;14.00;66.20;;;;;;5072582;28;20445;-75
2021/04/01 04:22:09;;;;;;;30.27;19.83;;;14.00;66.50;;;;;;5072894;28;20451;-75
2021/04/01 04:24:36;;;;;;;31.60;21.30;;;14.00;66.20;;;;;;5072836;28;20460;-75
2021/04/01 04:27:12;;;;;;;30.63;21.43;;;14.00;66.40;;;;;;5072539;28;20482;-75
2021/04/01 04:29:39;;;;;;;38.53;22.03;;;14.00;66.70;;;;;;5072584;28;20915;-75
2021/04/01 04:32:06;;;;;;;31.83;22.17;;;14.00;67.20;;;;;;5076338;28;20448;-74
2021/04/01 04:34:33;;;;;;;37.47;23.37;;;13.90;67.10;;;;;;5076403;28;20460;-73
2021/04/01 04:36:59;;;;;;;38.73;21.23;;;13.90;67.40;;;;;;5076490;28;20425;-74
2021/04/01 04:39:26;;;;;;;32.97;20.83;;;14.00;67.10;;;;;;5076340;28;20445;-74
2021/04/01 04:41:52;;;;;;;31.47;20.77;;;13.90;67.50;;;;;;5075969;28;20794;-73
2021/04/01 04:44:18;;;;;;;35.83;21.90;;;13.90;67.70;;;;;;5076250;28;20464;-73
2021/04/01 04:46:44;;;;;;;32.23;22.23;;;13.90;67.60;;;;;;5076165;28;20554;-74
2021/04/01 04:49:10;;;;;;;39.67;23.30;;;14.00;67.30;;;;;;5075819;28;20440;-74
2021/04/01 04:51:38;;;;;;;32.60;21.63;;;14.00;66.90;;;;;;5076213;28;20467;-74
2021/04/01 04:54:05;;;;;;;26.10;19.07;;;14.10;66.60;;;;;;5076407;28;20455;-74
2021/04/01 04:56:32;;;;;;;26.97;19.07;;;14.20;66.70;;;;;;5076260;28;20441;-73
2021/04/01 04:59:03;;;;;;;31.40;19.40;;;14.10;66.70;;;;;;5075754;28;20864;-74
2021/04/01 05:07:00;;;;;;;31.70;20.50;;;13.80;68.00;;;;;;5075546;28;20542;-74
2021/04/01 05:09:26;;;;;;;31.47;20.83;;;13.80;68.20;;;;;;5075941;28;20483;-74
2021/04/01 05:11:52;;;;;;;34.10;20.53;;;13.80;67.90;;;;;;5075857;28;20789;-74
2021/04/01 05:14:19;;;;;;;32.27;19.47;;;13.90;67.60;;;;;;5075710;28;20461;-74
2021/04/01 05:16:46;;;;;;;34.73;20.70;;;13.90;67.60;;;;;;5075761;28;20455;-74
2021/04/01 05:19:13;;;;;;;33.77;20.63;;;13.80;67.80;;;;;;5075772;28;20479;-74
2021/04/01 05:21:46;;;;;;;32.53;21.77;;;13.70;68.00;;;;;;5075310;28;20974;-74
2021/04/01 05:24:13;;;;;;;30.57;19.53;;;13.70;68.20;;;;;;5075348;28;20982;-74
2021/04/01 05:29:39;;;;;;;27.37;20.00;;;13.80;68.20;;;;;;5013562;28;20430;-74
2021/04/01 05:32:06;;;;;;;32.17;20.20;;;13.80;67.70;;;;;;5013388;28;20972;-74
2021/04/01 05:34:34;;;;;;;26.13;17.63;;;13.90;67.40;;;;;;5041063;28;20479;-74
2021/04/01 05:37:01;;;;;;;26.57;18.17;;;14.00;66.90;;;;;;5075420;28;20447;-74
2021/04/01 05:39:30;;;;;;;27.23;19.67;;;14.00;66.90;;;;;;5075363;28;20446;-74
2021/04/01 05:41:59;;;;;;;32.40;18.53;;;14.00;66.70;;;;;;5074206;28;20950;-74
2021/04/01 05:44:27;;;;;;;28.33;16.50;;;13.90;66.90;;;;;;5075199;28;20551;-73
2021/04/01 05:47:01;;;;;;;24.93;16.80;;;13.90;66.60;;;;;;5074827;28;20505;-73
2021/04/01 05:49:49;;;;;;;23.20;16.00;;;13.90;66.40;;;;;;5075235;28;20854;-74
2021/04/01 06:01:13;;;;;;;31.13;18.10;;;13.50;67.10;;;;;;5041379;28;20421;-73
2021/04/01 06:03:52;;;;;;;28.77;17.57;;;13.40;68.00;;;;;;5074808;28;20472;-74
2021/04/01 06:06:22;;;;;;;35.47;19.43;;;13.50;67.60;;;;;;5074855;28;20435;-74
2021/04/01 06:08:54;;;;;;;30.10;18.67;;;13.40;68.20;;;;;;5074359;28;20487;-73
2021/04/01 06:11:21;;;;;;;31.47;18.40;;;13.40;68.70;;;;;;5074472;28;20976;-73
2021/04/01 06:14:06;;;;;;;30.93;19.90;;;13.40;69.00;;;;;;5074323;28;20939;-74
2021/04/01 06:16:36;;;;;;;27.30;18.80;;;13.50;69.10;;;;;;5074708;28;20483;-73
2021/04/01 06:19:06;;;;;;;33.80;20.00;;;13.50;68.90;;;;;;5074312;28;20468;-73
2021/04/01 06:21:40;;;;;;;31.93;20.60;;;13.60;69.00;;;;;;5074521;28;20444;-73
2021/04/01 06:24:22;;;;;;;39.43;19.80;;;13.70;68.60;;;;;;5074406;28;20468;-74
2021/04/01 06:26:58;;;;;;;32.17;19.47;;;13.90;68.20;;;;;;5074422;28;20429;-73
2021/04/01 06:29:27;;;;;;;39.80;21.70;;;13.90;68.20;;;;;;5074407;28;20433;-73
2021/04/01 06:31:55;;;;;;;28.33;19.87;;;13.90;68.10;;;;;;5074353;28;20429;-74
2021/04/01 06:34:35;;;;;;;35.67;23.50;;;14.00;68.00;;;;;;5074229;28;20473;-73
2021/04/01 06:37:03;;;;;;;39.53;25.77;;;14.10;67.10;;;;;;5073927;28;20421;-74
2021/04/01 06:39:30;;;;;;;38.93;25.50;;;14.30;66.80;;;;;;5073785;28;20459;-73
2021/04/01 06:42:05;;;;;;;34.20;23.90;;;14.40;65.60;;;;;;5074133;28;20486;-74
2021/04/01 06:44:34;;;;;;;37.47;27.50;;;14.50;65.70;;;;;;5073852;28;21054;-74
2021/04/01 06:47:11;;;;;;;40.47;27.87;;;14.50;65.10;;;;;;5073882;28;20473;-74
2021/04/01 06:52:39;;;;;;;48.20;33.43;;;14.80;63.40;;;;;;5058317;28;20435;-74
2021/04/01 06:55:15;;;;;;;56.43;35.20;;;14.90;62.70;;;;;;5073887;28;20896;-74
2021/04/01 06:57:56;;;;;;;48.40;32.37;;;15.00;62.20;;;;;;5074153;28;20465;-74
2021/04/01 07:03:10;;;;;;;53.33;34.63;;;15.20;61.80;;;;;;5070990;28;20437;-74
2021/04/01 07:05:49;;;;;;;66.63;35.97;;;15.20;60.60;;;;;;5073760;28;20469;-74
2021/04/01 07:08:21;;;;;;;63.17;33.53;;;15.30;60.90;;;;;;5073283;28;20480;-74
2021/04/01 07:10:52;;;;;;;50.97;33.27;;;15.40;60.80;;;;;;5073731;28;20800;-74
2021/04/01 07:13:25;;;;;;;60.27;37.07;;;15.50;60.00;;;;;;5073754;28;20424;-74
2021/04/01 07:15:57;;;;;;;60.73;34.07;;;15.60;59.20;;;;;;5073724;28;20879;-74
2021/04/01 07:18:48;;;;;;;57.33;35.23;;;15.60;59.30;;;;;;5074033;28;20913;-74
2021/04/01 07:46:42;;;;;;;49.70;35.50;;;16.50;61.30;;;;;;5073673;28;20938;-74
2021/04/01 07:49:17;;;;;;;53.60;40.00;;;16.50;61.10;;;;;;5073528;28;20494;-74
2021/04/01 07:51:58;;;;;;;50.43;37.50;;;16.70;61.30;;;;;;5073479;28;20444;-74
2021/04/01 07:54:38;;;;;;;55.13;36.37;;;16.80;62.70;;;;;;5073423;28;20464;-74
2021/04/01 07:57:14;;;;;;;52.17;37.67;;;16.90;60.90;;;;;;5073272;28;20432;-74
2021/04/01 08:00:03;;;;;;;57.40;39.13;;;16.90;61.50;;;;;;5073412;28;20432;-74
2021/04/01 08:02:49;;;;;;;51.00;36.73;;;17.00;60.20;;;;;;5073250;28;20801;-74
2021/04/01 08:05:23;;;;;;;61.73;39.10;;;17.10;59.50;;;;;;5074222;28;20499;-74
2021/04/01 08:07:53;;;;;;;54.80;37.17;;;17.10;59.60;;;;;;5077128;28;20549;-74
2021/04/01 08:10:26;;;;;;;62.13;38.23;;;17.20;59.50;;;;;;5077223;28;20432;-73
2021/04/01 08:13:00;;;;;;;56.13;38.60;;;17.40;61.10;;;;;;5077120;28;20464;-73
2021/04/01 08:15:30;;;;;;;64.87;38.90;;;17.50;60.80;;;;;;5076900;28;20510;-73
2021/04/01 08:18:05;;;;;;;67.90;40.33;;;17.70;59.70;;;;;;5077025;28;20436;-73
2021/04/01 08:20:35;;;;;;;61.20;40.20;;;17.90;58.50;;;;;;5077003;28;20428;-73
2021/04/01 08:23:06;;;;;;;59.30;39.17;;;18.10;57.30;;;;;;5076877;28;20492;-73
2021/04/01 08:25:37;;;;;;;53.40;38.63;;;18.20;56.00;;;;;;5076754;28;20465;-73
2021/04/01 08:34:09;;;;;;;59.27;40.03;;;18.50;54.00;;;;;;5076602;28;20436;-73
2021/04/01 08:36:42;;;;;;;56.30;37.07;;;18.70;53.30;;;;;;5076684;28;20428;-72
2021/04/01 08:39:09;;;;;;;57.20;38.87;;;18.80;54.70;;;;;;5076555;28;20424;-72
2021/04/01 08:42:02;;;;;;;58.63;37.30;;;18.90;53.40;;;;;;5076602;28;20424;-72
2021/04/01 08:44:48;;;;;;;57.43;34.03;;;19.10;54.20;;;;;;5074107;28;20487;-73
2021/04/01 08:47:28;;;;;;;57.33;32.13;;;19.30;50.50;;;;;;5076291;28;20467;-73
2021/04/01 08:50:15;;;;;;;55.60;33.43;;;19.50;49.70;;;;;;5076188;28;20795;-73
2021/04/01 08:53:08;;;;;;;55.43;32.33;;;19.60;48.50;;;;;;5076320;28;20525;-73
2021/04/01 08:55:39;;;;;;;56.10;33.30;;;19.80;46.70;;;;;;5076255;28;20480;-73
2021/04/01 08:58:16;;;;;;;46.97;27.37;;;20.00;46.50;;;;;;5076341;28;20429;-73
2021/04/01 09:00:43;;;;;;;42.47;25.63;;;20.10;46.60;;;;;;5076377;28;20435;-73
2021/04/01 09:03:11;;;;;;;42.70;26.13;;;20.20;45.10;;;;;;5076190;28;20441;-72
2021/04/01 09:05:51;;;;;;;48.30;26.50;;;20.30;46.50;;;;;;5076142;28;20468;-73
2021/04/01 09:08:24;;;;;;;45.13;25.87;;;20.50;46.90;;;;;;5075677;28;20491;-73
2021/04/01 09:10:53;;;;;;;48.03;27.20;;;20.80;47.10;;;;;;5076078;28;20432;-73
2021/04/01 09:13:26;;;;;;;44.10;24.27;;;21.00;45.60;;;;;;5076013;28;20497;-74
2021/04/01 09:15:58;;;;;;;47.33;25.93;;;21.20;44.50;;;;;;5075609;28;20471;-73
2021/04/01 09:18:26;;;;;;;46.33;28.37;;;21.20;43.10;;;;;;5074563;28;20913;-73
2021/04/01 09:20:56;;;;;;;44.07;27.60;;;21.30;44.90;;;;;;5075848;28;20444;-73
2021/04/01 09:23:32;;;;;;;44.37;24.47;;;21.40;45.00;;;;;;5075965;28;20455;-73
2021/04/01 09:25:59;;;;;;;38.93;21.83;;;21.60;45.80;;;;;;5075774;28;20510;-73
2021/04/01 09:28:30;;;;;;;40.73;22.97;;;21.60;45.70;;;;;;5075640;28;20464;-73
2021/04/01 09:30:59;;;;;;;40.77;23.80;;;21.80;45.50;;;;;;5075413;28;20796;-73
2021/04/01 09:33:29;;;;;;;39.83;22.10;;;22.00;45.50;;;;;;5075659;28;20428;-73
2021/04/01 09:36:06;;;;;;;39.77;22.43;;;22.20;45.70;;;;;;5075494;28;20464;-73
2021/04/01 09:38:36;;;;;;;39.43;23.10;;;22.30;45.00;;;;;;5075545;28;20424;-73
2021/04/01 09:41:03;;;;;;;37.50;21.47;;;22.40;45.30;;;;;;5075651;28;20429;-73
2021/04/01 09:43:29;;;;;;;38.80;24.10;;;22.40;44.70;;;;;;5075125;28;20448;-73
2021/04/01 09:46:07;;;;;;;44.17;25.27;;;22.50;44.70;;;;;;5075265;28;20468;-73
2021/04/01 09:48:39;;;;;;;41.30;24.57;;;22.50;45.90;;;;;;5074920;28;20470;-73
2021/04/01 09:51:21;;;;;;;43.73;25.87;;;22.60;44.70;;;;;;5075193;28;20443;-73
2021/04/01 09:53:51;;;;;;;37.00;23.63;;;22.70;44.10;;;;;;5075194;28;20429;-73
2021/04/01 09:56:23;;;;;;;40.27;24.10;;;22.90;43.60;;;;;;5074948;28;20915;-73
2021/04/01 09:58:51;;;;;;;47.53;27.87;;;23.00;43.90;;;;;;5075064;28;20421;-73
2021/04/01 10:01:28;;;;;;;49.40;27.57;;;23.30;43.80;;;;;;5075017;28;20428;-74
2021/04/01 10:03:58;;;;;;;48.37;25.63;;;23.50;43.60;;;;;;5074597;28;20925;-74
2021/04/01 10:06:34;;;;;;;40.77;26.60;;;23.70;42.40;;;;;;5074882;28;20452;-73
2021/04/01 10:09:08;;;;;;;45.80;27.03;;;23.90;42.90;;;;;;5074596;28;20471;-73
2021/04/01 10:11:39;;;;;;;48.97;27.07;;;24.20;41.90;;;;;;5074443;28;20515;-73
2021/04/01 10:14:07;;;;;;;45.00;25.00;;;24.40;40.50;;;;;;5074302;28;20832;-74
2021/04/01 10:16:34;;;;;;;44.30;24.67;;;24.50;39.60;;;;;;5074740;28;20453;-73
2021/04/01 10:19:02;;;;;;;45.80;26.60;;;24.60;39.80;;;;;;5074624;28;20436;-74
2021/04/01 10:21:29;;;;;;;42.13;24.13;;;24.50;41.10;;;;;;5074295;28;20801;-73
2021/04/01 10:23:59;;;;;;;39.30;23.40;;;24.70;41.20;;;;;;5074476;28;20425;-73
2021/04/01 10:26:30;;;;;;;55.07;27.37;;;25.10;40.60;;;;;;5074615;28;20453;-74
2021/04/01 10:29:01;;;;;;;43.13;23.90;;;25.50;39.80;;;;;;5074300;28;20885;-74
2021/04/01 10:31:28;;;;;;;40.10;24.23;;;26.00;38.30;;;;;;5074363;28;20433;-73
2021/04/01 10:34:06;;;;;;;40.83;24.57;;;26.40;37.00;;;;;;5074256;28;20449;-72
2021/04/01 10:36:34;;;;;;;44.20;26.57;;;26.80;37.10;;;;;;5074276;28;20444;-73
2021/04/01 10:39:08;;;;;;;41.47;25.43;;;27.30;36.40;;;;;;5074145;28;20816;-73
2021/04/01 10:41:44;;;;;;;40.70;26.30;;;27.70;35.20;;;;;;5074177;28;20466;-73
2021/04/01 10:44:12;;;;;;;40.83;25.97;;;28.20;33.20;;;;;;5074147;28;20461;-73
2021/04/01 10:46:42;;;;;;;38.57;25.43;;;28.60;33.30;;;;;;5074124;28;20474;-73
2021/04/01 10:49:11;;;;;;;41.83;27.03;;;28.70;32.30;;;;;;5073793;28;20460;-73
2021/04/01 10:51:38;;;;;;;47.70;26.63;;;29.20;31.10;;;;;;5073966;28;20529;-73
2021/04/01 10:54:09;;;;;;;37.80;24.13;;;29.60;29.90;;;;;;5073965;28;20494;-73
2021/04/01 10:56:46;;;;;;;38.67;25.93;;;29.80;30.00;;;;;;5073977;28;20448;-74
2021/04/01 10:59:12;;;;;;;42.70;26.10;;;30.10;29.10;;;;;;5073955;28;20435;-74
2021/04/01 11:01:42;;;;;;;38.57;26.63;;;30.40;28.70;;;;;;5073780;28;20432;-74
2021/04/01 11:04:10;;;;;;;39.00;25.73;;;30.70;29.00;;;;;;5073775;28;20530;-74
2021/04/01 11:06:38;;;;;;;40.43;27.27;;;31.00;29.20;;;;;;5073622;28;20490;-73
2021/04/01 11:09:05;;;;;;;33.17;23.53;;;31.30;28.40;;;;;;5073759;28;20534;-73
2021/04/01 11:11:38;;;;;;;34.73;24.10;;;31.40;27.80;;;;;;5073796;28;20445;-74
2021/04/01 11:14:06;;;;;;;35.33;25.53;;;31.70;27.40;;;;;;5074269;28;21049;-73
2021/04/01 11:16:34;;;;;;;40.03;28.33;;;32.20;26.80;;;;;;5074000;28;20490;-72
2021/04/01 11:19:07;;;;;;;35.80;27.23;;;31.80;26.40;;;;;;5074079;28;20853;-72
2021/04/01 11:21:36;;;;;;;39.23;27.10;;;31.60;27.70;;;;;;5074272;28;20428;-73
2021/04/01 11:24:04;;;;;;;40.27;26.73;;;32.00;27.40;;;;;;5073541;28;20997;-73
2021/04/01 11:26:31;;;;;;;43.90;29.60;;;32.60;26.80;;;;;;5074712;28;20448;-73
2021/04/01 11:28:59;;;;;;;40.70;27.90;;;32.90;25.80;;;;;;5073893;28;20487;-73
2021/04/01 11:31:28;;;;;;;43.70;31.07;;;33.30;25.60;;;;;;5073824;28;20490;-73
2021/04/01 11:33:55;;;;;;;37.77;28.67;;;33.40;24.90;;;;;;5073759;28;20443;-73
2021/04/01 11:36:24;;;;;;;47.57;32.80;;;33.20;25.80;;;;;;5073698;28;20443;-73
2021/04/01 11:38:54;;;;;;;42.13;31.60;;;33.60;25.20;;;;;;5073747;28;20448;-73
2021/04/01 11:41:23;;;;;;;39.13;29.23;;;33.70;24.40;;;;;;5073024;28;20438;-73
2021/04/01 11:43:51;;;;;;;38.23;29.60;;;33.90;24.30;;;;;;5073368;28;20448;-73
2021/04/01 11:46:19;;;;;;;35.30;28.60;;;34.20;23.90;;;;;;5073275;28;20777;-73
2021/04/01 11:48:48;;;;;;;41.53;30.70;;;34.40;23.50;;;;;;5073042;28;20554;-73
2021/04/01 11:51:19;;;;;;;40.50;31.90;;;34.90;23.40;;;;;;5072945;28;20444;-73
2021/04/01 11:53:46;;;;;;;47.57;34.00;;;34.70;22.30;;;;;;5072925;28;20907;-73
2021/04/01 11:56:12;;;;;;;44.37;36.43;;;34.90;23.30;;;;;;5073322;28;20440;-73
2021/04/01 11:58:40;;;;;;;53.23;37.57;;;34.80;22.60;;;;;;5073787;28;20444;-73
2021/04/01 12:01:10;;;;;;;46.90;36.40;;;34.80;23.10;;;;;;5073235;28;20435;-73
2021/04/01 12:03:48;;;;;;;47.40;38.20;;;34.30;22.90;;;;;;5072956;28;20822;-74
2021/04/01 12:06:15;;;;;;;52.33;40.20;;;34.00;23.00;;;;;;5073187;28;20471;-73
2021/04/01 12:08:41;;;;;;;50.43;40.10;;;34.20;24.10;;;;;;5072639;28;20863;-73
2021/04/01 12:11:07;;;;;;;47.50;35.83;;;34.20;23.30;;;;;;5073231;28;20439;-73
2021/04/01 12:13:34;;;;;;;49.97;36.30;;;34.10;23.10;;;;;;5072791;28;20444;-73
2021/04/01 12:16:01;;;;;;;48.10;34.77;;;33.90;23.10;;;;;;5073058;28;20468;-73
2021/04/01 12:18:39;;;;;;;52.70;36.37;;;33.90;23.30;;;;;;5073082;28;20444;-73
2021/04/01 12:21:06;;;;;;;42.73;32.40;;;34.00;22.20;;;;;;5072741;28;20930;-73
2021/04/01 12:23:41;;;;;;;39.67;31.57;;;34.00;22.80;;;;;;5072991;28;20451;-73
2021/04/01 12:26:07;;;;;;;47.43;35.20;;;34.40;22.00;;;;;;5073076;28;20439;-73
2021/04/01 12:28:34;;;;;;;40.67;31.03;;;35.10;22.10;;;;;;5072818;28;20846;-73
2021/04/01 12:31:01;;;;;;;43.83;35.57;;;35.80;21.70;;;;;;5072958;28;20435;-73
2021/04/01 12:33:29;;;;;;;44.33;35.27;;;36.60;21.00;;;;;;5072557;28;20440;-74
2021/04/01 12:35:56;;;;;;;41.37;33.53;;;36.70;21.10;;;;;;5072819;28;20650;-73
2021/04/01 12:38:29;;;;;;;45.40;34.17;;;36.90;20.90;;;;;;5072617;28;20957;-73
2021/04/01 12:40:56;;;;;;;49.37;39.40;;;37.20;20.60;;;;;;5072787;28;20386;-73
2021/04/01 12:43:29;;;;;;;53.43;39.70;;;36.90;20.60;;;;;;5072808;28;20428;-73
2021/04/01 12:45:56;;;;;;;50.00;40.57;;;37.00;20.90;;;;;;5072768;28;20229;-73
2021/04/01 12:48:23;;;;;;;48.17;42.77;;;37.10;20.40;;;;;;5072647;28;20480;-73
2021/04/01 12:50:52;;;;;;;49.03;43.83;;;37.50;20.40;;;;;;5072735;28;20206;-74
2021/04/01 12:53:20;;;;;;;55.93;47.93;;;37.70;20.70;;;;;;5076273;28;20218;-73
2021/04/01 12:55:50;;;;;;;49.63;43.00;;;37.70;20.40;;;;;;5076241;28;20236;-73
2021/04/01 12:58:28;;;;;;;51.10;45.80;;;37.10;21.40;;;;;;5076183;28;20217;-73
2021/04/01 13:00:56;;;;;;;55.47;49.63;;;37.00;22.00;;;;;;5076102;28;20189;-72
2021/04/01 13:03:23;;;;;;;47.13;42.03;;;36.80;21.90;;;;;;5076067;28;20208;-73
2021/04/01 13:05:54;;;;;;;52.90;47.07;;;36.70;21.80;;;;;;5075945;28;20226;-73
2021/04/01 13:08:51;;;;;;;55.77;49.30;;;36.90;21.80;;;;;;5075590;28;20559;-74
2021/04/01 13:11:18;;;;;;;52.67;46.97;;;36.50;21.60;;;;;;5075908;28;20437;-72
2021/04/01 13:13:45;;;;;;;60.73;54.10;;;35.50;22.30;;;;;;5075800;28;20448;-72
2021/04/01 13:16:11;;;;;;;53.60;47.80;;;35.00;23.30;;;;;;5075808;28;20524;-72
2021/04/01 13:18:38;;;;;;;64.70;57.60;;;34.60;24.00;;;;;;5075717;28;20451;-72
2021/04/01 13:21:15;;;;;;;63.00;54.20;;;34.70;24.10;;;;;;5075722;28;20506;-73
2021/04/01 13:23:44;;;;;;;57.27;51.00;;;34.60;23.60;;;;;;5075324;28;20902;-74
2021/04/01 13:26:13;;;;;;;68.03;60.70;;;34.70;23.80;;;;;;5075327;28;20849;-74
2021/04/01 13:28:42;;;;;;;76.60;62.93;;;34.60;23.40;;;;;;5075225;28;20831;-74
2021/04/01 13:31:15;;;;;;;70.57;61.40;;;34.40;23.80;;;;;;5075664;28;20451;-74
2021/04/01 13:33:48;;;;;;;58.07;51.50;;;34.30;24.10;;;;;;5075590;28;20467;-74
2021/04/01 13:36:20;;;;;;;64.57;57.43;;;34.10;24.10;;;;;;5075523;28;20433;-72
2021/04/01 13:38:46;;;;;;;65.97;58.77;;;34.20;24.50;;;;;;5075580;28;20428;-72
2021/04/01 13:41:18;;;;;;;68.60;60.27;;;34.60;24.10;;;;;;5075373;28;20543;-72
2021/04/01 13:43:45;;;;;;;57.60;51.37;;;35.20;23.70;;;;;;5075289;28;20527;-72
2021/04/01 13:46:13;;;;;;;65.50;58.73;;;35.10;23.30;;;;;;5075475;28;20435;-72